Terminal Aerodrome Forecast
Issued by NWS

Current Version | Previous Version | Text Only | Print | Product List | Glossary On
Versions: 1 2 3 4 5 6 7 8 9 10 11 12 13 14 15 16
000
FTUS46 KHNX 291122
TAFVIS
TAF
KVIS 291122Z 2912/3012 00000KT 1/4SM FG OVC001
      TEMPO 2917/2919 1SM BR BKN005
     FM291900 00000KT 1SM BR BKN005
     FM292000 VRB03KT 2SM BR SCT005 BKN120
     FM292200 29005KT 3SM HZ BKN120
     FM300600 VRB03KT 1/2SM FG OVC003
     FM300800 VRB03KT 1/4SM FG OVC001=

USA.gov is the U.S. government's official web portal to all federal, state and local government web resources and services.